Time;durP1;ratioP1;P1;durP2;ratioP2;P2;SDS_P1;SDS_P2;PMS_P1;PMS_P2;Temp;Humidity;BMP_temperature;BMP_pressure;BME280_temperature;BME280_humidity;BME280_pressure;Samples;Min_cycle;Max_cycle;Signal;HPM_P1;HPM_P2
2021/08/14 00:01:56;;;;;;;2.73;2.07;;;20.30;99.90;;;;;;5036893;28;20857;-78
2021/08/14 00:04:23;;;;;;;2.43;1.53;;;20.30;99.90;;;;;;5036373;28;20441;-78
2021/08/14 00:06:49;;;;;;;3.07;1.80;;;20.30;99.90;;;;;;5036003;28;20821;-78
2021/08/14 00:09:16;;;;;;;1.43;1.33;;;20.20;99.90;;;;;;5036240;28;20463;-78
2021/08/14 00:11:43;;;;;;;4.17;1.80;;;20.20;99.90;;;;;;5035842;28;20954;-78
2021/08/14 00:14:09;;;;;;;2.30;1.20;;;20.20;99.90;;;;;;5036155;28;20450;-78
2021/08/14 00:16:37;;;;;;;2.27;1.27;;;20.20;99.90;;;;;;5036014;28;20486;-78
2021/08/14 00:19:04;;;;;;;1.77;1.23;;;20.10;99.90;;;;;;5036047;28;20450;-78
2021/08/14 00:21:31;;;;;;;3.47;1.90;;;20.00;99.90;;;;;;5035729;28;20827;-81
2021/08/14 00:23:58;;;;;;;2.73;1.90;;;20.00;99.90;;;;;;5035944;28;20438;-81
2021/08/14 00:26:24;;;;;;;3.03;1.27;;;20.00;99.90;;;;;;5035912;28;20446;-81
2021/08/14 00:28:51;;;;;;;2.53;1.57;;;20.00;99.90;;;;;;5035904;28;20461;-81
2021/08/14 00:31:18;;;;;;;1.83;1.33;;;20.00;99.90;;;;;;5035801;28;20470;-78
2021/08/14 00:33:47;;;;;;;1.97;1.33;;;20.00;99.90;;;;;;5035782;28;20508;-78
2021/08/14 00:36:13;;;;;;;2.90;1.47;;;20.00;99.90;;;;;;5035640;28;20489;-78
2021/08/14 00:38:40;;;;;;;1.60;1.20;;;19.90;99.90;;;;;;5034600;28;20805;-78
2021/08/14 00:41:07;;;;;;;3.10;1.63;;;19.80;99.90;;;;;;5035533;28;20412;-78
2021/08/14 00:43:34;;;;;;;2.30;1.43;;;19.80;99.90;;;;;;5035877;28;20461;-77
2021/08/14 00:46:01;;;;;;;2.67;1.30;;;19.80;99.90;;;;;;5035543;28;20446;-78
2021/08/14 00:48:28;;;;;;;3.27;1.70;;;19.80;99.90;;;;;;5035519;28;20455;-77
2021/08/14 00:50:57;;;;;;;2.30;2.00;;;19.70;99.90;;;;;;5035354;28;20446;-78
2021/08/14 00:53:23;;;;;;;2.10;1.50;;;19.70;99.90;;;;;;5035425;28;20461;-78
2021/08/14 00:55:50;;;;;;;3.80;2.00;;;19.70;99.90;;;;;;5035295;28;20483;-78
2021/08/14 00:58:17;;;;;;;4.20;2.10;;;19.70;99.90;;;;;;5035597;28;20490;-78
2021/08/14 01:00:44;;;;;;;1.80;1.70;;;19.70;99.90;;;;;;5035247;28;20459;-78
2021/08/14 01:03:12;;;;;;;1.60;1.40;;;19.60;99.90;;;;;;5035434;28;20473;-78
2021/08/14 01:05:40;;;;;;;2.23;1.37;;;19.60;99.90;;;;;;5035158;28;20796;-78
2021/08/14 01:08:08;;;;;;;4.20;2.10;;;19.60;99.90;;;;;;5035107;28;20469;-78
2021/08/14 01:10:36;;;;;;;2.63;1.40;;;19.50;99.90;;;;;;5034663;28;20866;-78
2021/08/14 01:13:03;;;;;;;3.13;2.10;;;19.50;99.90;;;;;;5035021;28;20479;-77
2021/08/14 01:15:30;;;;;;;2.23;2.03;;;19.50;99.90;;;;;;5034594;28;21005;-78
2021/08/14 01:17:58;;;;;;;1.93;1.37;;;19.50;99.90;;;;;;5034954;28;20439;-78
2021/08/14 01:20:25;;;;;;;1.63;1.50;;;19.40;99.90;;;;;;5034930;28;20449;-78
2021/08/14 01:22:51;;;;;;;6.50;1.73;;;19.40;99.90;;;;;;5034911;28;20826;-81
2021/08/14 01:25:20;;;;;;;2.13;1.67;;;19.40;99.90;;;;;;5034825;28;20442;-81
2021/08/14 01:27:48;;;;;;;1.50;1.40;;;19.40;99.90;;;;;;5034522;28;20926;-81
2021/08/14 01:30:15;;;;;;;1.50;1.40;;;19.30;99.90;;;;;;5034706;28;20462;-81
2021/08/14 01:32:42;;;;;;;2.23;1.60;;;19.30;99.90;;;;;;5034582;28;20478;-81
2021/08/14 01:35:09;;;;;;;2.77;1.50;;;19.30;99.90;;;;;;5034296;28;20483;-80
2021/08/14 01:37:36;;;;;;;1.97;1.43;;;19.30;99.90;;;;;;5034602;28;20454;-81
2021/08/14 01:40:04;;;;;;;2.17;1.50;;;19.30;99.90;;;;;;5034123;28;20536;-81
2021/08/14 01:42:31;;;;;;;1.40;1.27;;;19.30;99.90;;;;;;5034184;28;20462;-81
2021/08/14 01:44:59;;;;;;;3.47;2.07;;;19.20;99.90;;;;;;5034186;28;20439;-80
2021/08/14 01:47:26;;;;;;;2.20;1.50;;;19.30;99.90;;;;;;5034391;28;20458;-81
2021/08/14 01:49:52;;;;;;;2.60;1.37;;;19.20;99.90;;;;;;5034360;28;20457;-81
2021/08/14 01:52:19;;;;;;;1.43;1.00;;;19.20;99.90;;;;;;5033927;28;21005;-81
2021/08/14 01:54:47;;;;;;;1.97;1.43;;;19.20;99.90;;;;;;5034207;28;20450;-81
2021/08/14 01:57:16;;;;;;;1.40;1.40;;;19.20;99.90;;;;;;5034209;28;20449;-81
2021/08/14 01:59:43;;;;;;;1.90;1.20;;;19.20;99.90;;;;;;5034226;28;20454;-81
2021/08/14 02:02:11;;;;;;;2.23;1.27;;;19.10;99.90;;;;;;5033869;28;20459;-81
2021/08/14 02:04:38;;;;;;;2.53;1.37;;;19.10;99.90;;;;;;5034099;28;20448;-81
2021/08/14 02:07:05;;;;;;;1.63;1.20;;;19.10;99.90;;;;;;5033716;28;20965;-81
2021/08/14 02:09:32;;;;;;;3.27;1.60;;;19.10;99.90;;;;;;5034113;28;20457;-81
2021/08/14 02:11:59;;;;;;;4.37;1.83;;;19.10;99.90;;;;;;5033572;28;21013;-81
2021/08/14 02:14:25;;;;;;;1.40;1.17;;;19.10;99.90;;;;;;5033890;28;20447;-81
2021/08/14 02:16:52;;;;;;;3.10;1.67;;;19.10;99.90;;;;;;5033468;28;20490;-81
2021/08/14 02:19:20;;;;;;;2.10;1.30;;;19.20;99.90;;;;;;5033828;28;20450;-82
2021/08/14 02:21:47;;;;;;;2.67;1.73;;;19.10;99.90;;;;;;5033692;28;20473;-81
2021/08/14 02:24:13;;;;;;;2.53;1.17;;;19.10;99.90;;;;;;5033731;28;20455;-81
2021/08/14 02:26:40;;;;;;;1.30;1.20;;;19.20;99.90;;;;;;5033441;28;20930;-81
2021/08/14 02:29:07;;;;;;;2.17;1.20;;;19.20;99.90;;;;;;5033376;28;20989;-81
2021/08/14 02:31:34;;;;;;;2.00;1.17;;;19.20;99.90;;;;;;5033564;28;20474;-81
2021/08/14 02:34:01;;;;;;;1.70;1.60;;;19.10;99.90;;;;;;5033627;28;20450;-81
2021/08/14 02:36:29;;;;;;;1.83;1.20;;;19.10;99.90;;;;;;5033488;28;20489;-81
2021/08/14 02:38:56;;;;;;;3.00;1.63;;;19.10;99.90;;;;;;5033369;28;20478;-81
2021/08/14 02:41:22;;;;;;;1.50;1.00;;;19.10;99.90;;;;;;5033706;28;20474;-81
2021/08/14 02:43:49;;;;;;;2.20;1.20;;;19.00;99.90;;;;;;5033148;28;20457;-81
2021/08/14 02:46:16;;;;;;;3.83;1.37;;;19.00;99.90;;;;;;5033412;28;20447;-81
2021/08/14 02:48:43;;;;;;;1.40;1.30;;;19.00;99.90;;;;;;5033128;28;20957;-80
2021/08/14 02:51:09;;;;;;;1.90;1.37;;;19.00;99.90;;;;;;5033298;28;20450;-81
2021/08/14 02:53:37;;;;;;;1.83;1.43;;;18.90;99.90;;;;;;5033368;28;20526;-81
2021/08/14 02:56:05;;;;;;;4.67;2.00;;;18.90;99.90;;;;;;5033263;28;20486;-81
2021/08/14 02:58:31;;;;;;;1.87;1.07;;;18.90;99.90;;;;;;5032998;28;20461;-81
2021/08/14 03:00:58;;;;;;;1.17;1.10;;;18.90;99.90;;;;;;5033217;28;20455;-81
2021/08/14 03:03:25;;;;;;;4.40;1.60;;;18.80;99.90;;;;;;5038235;28;20446;-80
2021/08/14 03:05:52;;;;;;;1.60;1.20;;;18.80;99.90;;;;;;5039889;28;20438;-81
2021/08/14 03:08:19;;;;;;;0.97;0.97;;;18.80;99.90;;;;;;5039656;28;20445;-81
2021/08/14 03:10:47;;;;;;;4.97;2.17;;;18.80;99.90;;;;;;5039791;28;20456;-80
2021/08/14 03:13:15;;;;;;;1.10;1.10;;;18.80;99.90;;;;;;5039726;28;20481;-81
2021/08/14 03:15:42;;;;;;;1.20;1.10;;;18.80;99.90;;;;;;5039707;28;20837;-81
2021/08/14 03:18:09;;;;;;;1.10;0.90;;;18.70;99.90;;;;;;5039425;28;20946;-81
2021/08/14 03:20:35;;;;;;;0.90;0.70;;;18.70;99.90;;;;;;5039423;28;20934;-81
2021/08/14 03:23:02;;;;;;;1.53;1.00;;;18.70;99.90;;;;;;5039330;28;20990;-81
2021/08/14 03:25:29;;;;;;;2.30;1.17;;;18.70;99.90;;;;;;5039692;28;20446;-81
2021/08/14 03:27:57;;;;;;;3.20;1.60;;;18.70;99.90;;;;;;5039346;28;20840;-81
2021/08/14 03:30:24;;;;;;;3.57;1.70;;;18.60;99.90;;;;;;5039385;28;20434;-81
2021/08/14 03:32:52;;;;;;;2.67;2.20;;;18.60;99.90;;;;;;5039588;28;20469;-81
2021/08/14 03:35:19;;;;;;;1.30;1.13;;;18.60;99.90;;;;;;5039836;28;20451;-81
2021/08/14 03:37:46;;;;;;;2.43;1.47;;;18.60;99.90;;;;;;5039941;28;20446;-81
2021/08/14 03:40:14;;;;;;;1.67;1.00;;;18.60;99.90;;;;;;5039324;28;20470;-81
2021/08/14 03:42:41;;;;;;;5.43;1.97;;;18.50;99.90;;;;;;5039411;28;20458;-82
2021/08/14 03:45:09;;;;;;;2.20;1.83;;;18.50;99.90;;;;;;5040022;28;20465;-82
2021/08/14 03:47:36;;;;;;;2.47;1.73;;;18.50;99.90;;;;;;5039863;28;20443;-82
2021/08/14 03:50:06;;;;;;;2.23;1.17;;;18.50;99.90;;;;;;5039997;28;20454;-82
2021/08/14 03:52:32;;;;;;;1.93;1.67;;;18.50;99.90;;;;;;5039867;28;20556;-82
2021/08/14 03:55:01;;;;;;;2.17;1.37;;;18.50;99.90;;;;;;5039888;28;20452;-82
2021/08/14 03:57:28;;;;;;;2.60;1.90;;;18.40;99.90;;;;;;5039779;28;20540;-82
2021/08/14 03:59:55;;;;;;;1.70;0.80;;;18.40;99.90;;;;;;5039472;28;20450;-81
2021/08/14 04:02:23;;;;;;;4.97;2.00;;;18.40;99.90;;;;;;5039435;28;20812;-81
2021/08/14 04:04:50;;;;;;;1.37;1.27;;;18.40;99.90;;;;;;5039471;28;20450;-81
2021/08/14 04:07:16;;;;;;;3.13;1.43;;;18.40;99.90;;;;;;5039722;28;20451;-81
2021/08/14 04:09:43;;;;;;;1.17;1.07;;;18.40;99.90;;;;;;5039481;28;20451;-81
2021/08/14 04:12:10;;;;;;;1.60;1.33;;;18.40;99.90;;;;;;5039797;28;20470;-81
2021/08/14 04:14:37;;;;;;;1.10;0.90;;;18.30;99.90;;;;;;5035967;28;20457;-82
2021/08/14 04:17:05;;;;;;;1.37;1.10;;;18.30;99.90;;;;;;5035938;28;20500;-82
2021/08/14 04:19:33;;;;;;;3.30;1.23;;;18.30;99.90;;;;;;5036259;28;20453;-82
2021/08/14 04:22:00;;;;;;;1.30;1.20;;;18.30;99.90;;;;;;5036164;28;20843;-81
2021/08/14 04:24:27;;;;;;;1.53;1.37;;;18.30;99.90;;;;;;5036100;28;20455;-81
2021/08/14 04:26:54;;;;;;;3.53;1.50;;;18.30;99.90;;;;;;5036547;28;20434;-81
2021/08/14 04:29:21;;;;;;;1.53;1.43;;;18.30;99.90;;;;;;5036182;28;20461;-81
2021/08/14 04:31:47;;;;;;;4.37;1.40;;;18.20;99.90;;;;;;5035722;28;20861;-80
2021/08/14 04:34:14;;;;;;;4.57;2.10;;;18.20;99.90;;;;;;5035936;28;20462;-80
2021/08/14 04:36:42;;;;;;;1.13;1.03;;;18.30;99.90;;;;;;5035820;28;20470;-81
2021/08/14 04:39:09;;;;;;;1.30;1.20;;;18.30;99.90;;;;;;5035421;28;20485;-81
2021/08/14 04:41:36;;;;;;;4.10;2.43;;;18.30;99.90;;;;;;5035764;28;20470;-81
2021/08/14 04:44:02;;;;;;;5.90;1.83;;;18.30;99.90;;;;;;5035566;28;20435;-81
2021/08/14 04:46:29;;;;;;;1.07;1.03;;;18.30;99.90;;;;;;5035695;28;20802;-81
2021/08/14 04:48:56;;;;;;;2.27;1.80;;;18.40;99.90;;;;;;5035609;28;20439;-78
2021/08/14 04:51:23;;;;;;;3.50;2.30;;;18.40;99.90;;;;;;5035408;28;20475;-77
2021/08/14 04:53:51;;;;;;;3.47;1.53;;;18.40;99.90;;;;;;5035441;28;20454;-77
2021/08/14 04:56:17;;;;;;;1.50;1.23;;;18.40;99.90;;;;;;5035322;28;20493;-77
2021/08/14 04:58:44;;;;;;;2.10;1.30;;;18.40;99.90;;;;;;5035105;28;20977;-78
2021/08/14 05:01:11;;;;;;;3.33;2.00;;;18.40;99.90;;;;;;5034970;28;20442;-77
2021/08/14 05:03:38;;;;;;;2.80;1.57;;;18.40;99.90;;;;;;5035022;28;20434;-77
2021/08/14 05:06:06;;;;;;;1.77;1.00;;;18.40;99.90;;;;;;5034954;28;20938;-78
2021/08/14 05:08:33;;;;;;;2.57;2.13;;;18.50;99.90;;;;;;5035201;28;20450;-77
2021/08/14 05:11:01;;;;;;;1.80;1.27;;;18.50;99.90;;;;;;5034855;28;20791;-77
2021/08/14 05:13:28;;;;;;;2.50;1.70;;;18.50;99.90;;;;;;5035267;28;20447;-81
2021/08/14 05:15:55;;;;;;;3.00;1.87;;;18.50;99.90;;;;;;5035228;28;20458;-81
2021/08/14 05:18:22;;;;;;;1.90;1.30;;;18.50;99.90;;;;;;5035415;28;20453;-81
2021/08/14 05:20:48;;;;;;;2.70;1.90;;;18.50;99.90;;;;;;5034854;28;20435;-81
2021/08/14 05:23:15;;;;;;;4.07;1.60;;;18.60;99.90;;;;;;5034803;28;20478;-81
2021/08/14 05:25:42;;;;;;;3.17;1.57;;;18.60;99.90;;;;;;5034952;28;20450;-81
2021/08/14 05:28:10;;;;;;;2.50;2.07;;;18.60;99.90;;;;;;5034788;28;20447;-81
2021/08/14 05:30:37;;;;;;;2.53;1.23;;;18.70;99.90;;;;;;5034895;28;20446;-81
2021/08/14 05:33:03;;;;;;;1.50;1.40;;;18.70;99.90;;;;;;5034618;28;20837;-81
2021/08/14 05:35:30;;;;;;;2.40;1.30;;;18.70;99.90;;;;;;5034953;28;20454;-81
2021/08/14 05:37:57;;;;;;;1.93;1.30;;;18.70;99.90;;;;;;5034504;28;20485;-81
2021/08/14 05:40:24;;;;;;;4.63;4.23;;;18.70;99.90;;;;;;5015107;28;20448;-81
2021/08/14 05:42:50;;;;;;;2.93;1.90;;;18.80;99.90;;;;;;5014908;28;20464;-81
2021/08/14 05:45:19;;;;;;;3.30;1.87;;;18.80;99.90;;;;;;5014929;28;20950;-80
2021/08/14 05:47:45;;;;;;;1.60;1.50;;;18.90;99.90;;;;;;5014895;28;20439;-82
2021/08/14 05:50:12;;;;;;;2.30;1.43;;;19.00;99.90;;;;;;5014768;28;20451;-81
2021/08/14 05:52:39;;;;;;;2.67;1.53;;;19.10;99.90;;;;;;5014387;28;20463;-81
2021/08/14 05:55:06;;;;;;;1.90;1.30;;;19.10;99.90;;;;;;5014918;28;20443;-81
2021/08/14 05:57:33;;;;;;;2.13;1.93;;;19.20;99.90;;;;;;5014242;28;20479;-80
2021/08/14 06:00:00;;;;;;;6.83;1.33;;;19.30;99.90;;;;;;5014746;28;20462;-80
2021/08/14 06:02:28;;;;;;;1.33;1.23;;;19.40;99.90;;;;;;5013998;28;20470;-80
2021/08/14 06:04:55;;;;;;;2.47;1.97;;;19.50;99.90;;;;;;5014163;28;20455;-81
2021/08/14 06:07:21;;;;;;;2.03;1.53;;;19.60;99.90;;;;;;5014684;28;20447;-81
2021/08/14 06:09:48;;;;;;;2.97;2.07;;;19.70;99.90;;;;;;5014180;28;20970;-82
2021/08/14 06:12:15;;;;;;;5.17;1.87;;;19.90;99.90;;;;;;5014343;28;20474;-82
2021/08/14 06:14:42;;;;;;;2.10;1.73;;;20.00;99.90;;;;;;5014334;28;20436;-81
2021/08/14 06:17:08;;;;;;;2.40;1.90;;;20.10;99.90;;;;;;5014200;28;21040;-81
2021/08/14 06:19:37;;;;;;;2.07;1.93;;;20.20;99.90;;;;;;5015104;28;20458;-81
2021/08/14 06:22:04;;;;;;;1.47;1.37;;;20.30;99.90;;;;;;5013987;28;20998;-80
2021/08/14 06:24:31;;;;;;;2.90;1.93;;;20.50;99.90;;;;;;5014307;28;20436;-80
2021/08/14 06:26:58;;;;;;;5.90;2.00;;;20.60;99.90;;;;;;5014205;28;20451;-80
2021/08/14 06:29:24;;;;;;;2.23;2.03;;;20.60;99.90;;;;;;5014572;28;20458;-81
2021/08/14 06:31:51;;;;;;;1.60;1.50;;;20.80;99.90;;;;;;5015227;28;20855;-80
2021/08/14 06:34:18;;;;;;;4.60;2.00;;;20.90;99.90;;;;;;5014479;28;20462;-80
2021/08/14 06:36:46;;;;;;;1.63;1.10;;;21.10;99.90;;;;;;5013867;28;20479;-81
2021/08/14 06:39:13;;;;;;;3.33;1.43;;;21.20;99.90;;;;;;5024206;28;20485;-81
2021/08/14 06:41:39;;;;;;;2.23;1.47;;;21.30;99.90;;;;;;5033630;28;20465;-81
2021/08/14 06:44:06;;;;;;;3.10;2.00;;;21.40;99.90;;;;;;5033677;28;20454;-81
2021/08/14 06:46:34;;;;;;;1.40;1.20;;;21.60;99.90;;;;;;5033471;28;20445;-80
2021/08/14 06:49:03;;;;;;;3.07;1.63;;;21.60;99.90;;;;;;5033415;28;20541;-81
2021/08/14 06:51:30;;;;;;;1.87;1.70;;;21.80;99.90;;;;;;5033303;28;20516;-81
2021/08/14 06:53:58;;;;;;;2.57;1.73;;;21.90;99.90;;;;;;5033365;28;20504;-81
2021/08/14 06:56:25;;;;;;;2.80;2.00;;;22.00;99.90;;;;;;5033279;28;20454;-81
2021/08/14 06:58:51;;;;;;;3.77;2.30;;;22.20;99.90;;;;;;5033033;28;20978;-81
2021/08/14 07:01:18;;;;;;;1.93;1.30;;;22.30;99.90;;;;;;5033126;28;20485;-81
2021/08/14 07:03:45;;;;;;;2.10;1.83;;;22.40;99.90;;;;;;5033305;28;20453;-81
2021/08/14 07:06:19;;;;;;;1.40;1.23;;;22.50;99.90;;;;;;5033287;28;20446;-81
2021/08/14 07:08:46;;;;;;;2.63;1.70;;;22.60;99.90;;;;;;5033247;28;20897;-81
2021/08/14 07:11:14;;;;;;;2.73;1.63;;;22.70;99.90;;;;;;5033205;28;20447;-81
2021/08/14 07:13:41;;;;;;;2.70;2.50;;;22.90;99.90;;;;;;5033291;28;20195;-81
2021/08/14 07:16:07;;;;;;;2.73;1.77;;;23.10;99.90;;;;;;5033249;28;20304;-81
2021/08/14 07:18:34;;;;;;;1.60;1.50;;;23.20;99.90;;;;;;5033179;28;20706;-82
2021/08/14 07:21:01;;;;;;;2.13;1.97;;;23.30;99.90;;;;;;5033092;28;20426;-81
2021/08/14 07:23:28;;;;;;;2.28;2.08;;;23.40;99.90;;;;;;5033186;28;20192;-81
2021/08/14 07:25:54;;;;;;;2.43;1.77;;;23.60;99.90;;;;;;5033815;28;20215;-81
2021/08/14 07:28:22;;;;;;;3.45;2.40;;;23.70;99.90;;;;;;5033069;28;20218;-81
2021/08/14 07:30:49;;;;;;;1.90;1.77;;;23.90;99.90;;;;;;5033080;28;20230;-81
2021/08/14 07:33:17;;;;;;;1.58;1.48;;;24.00;99.90;;;;;;5032629;28;20785;-81
2021/08/14 07:35:44;;;;;;;3.40;1.67;;;24.10;99.90;;;;;;5033421;28;20204;-82
2021/08/14 07:38:11;;;;;;;3.22;1.50;;;24.20;99.90;;;;;;5032960;28;20238;-82
2021/08/14 07:40:38;;;;;;;2.60;2.22;;;24.30;99.90;;;;;;5032977;28;20659;-81
2021/08/14 07:43:07;;;;;;;3.20;1.77;;;24.40;99.90;;;;;;5032885;28;20227;-81
2021/08/14 07:45:35;;;;;;;2.08;1.55;;;24.60;99.90;;;;;;5032626;28;20751;-81
2021/08/14 07:48:04;;;;;;;3.00;2.03;;;24.70;99.90;;;;;;5033027;28;20664;-80
2021/08/14 07:50:31;;;;;;;8.20;2.17;;;24.80;99.90;;;;;;5036599;28;20210;-80
2021/08/14 07:52:59;;;;;;;3.63;1.92;;;24.90;99.90;;;;;;5036444;28;20238;-80
2021/08/14 07:55:28;;;;;;;4.60;1.38;;;25.00;99.90;;;;;;5036572;28;20301;-80
2021/08/14 07:57:55;;;;;;;1.45;1.35;;;25.10;99.90;;;;;;5036516;28;20616;-80
2021/08/14 08:00:23;;;;;;;4.22;2.35;;;25.10;99.90;;;;;;5036481;28;20210;-80
2021/08/14 08:02:52;;;;;;;2.42;1.58;;;25.30;99.90;;;;;;5036320;28;20227;-80
2021/08/14 08:05:19;;;;;;;4.28;2.08;;;25.40;99.90;;;;;;5036360;28;20211;-81
2021/08/14 08:07:47;;;;;;;2.70;1.98;;;25.40;99.90;;;;;;5036378;28;20262;-80
2021/08/14 08:10:15;;;;;;;2.05;1.85;;;25.70;99.90;;;;;;5035918;28;20584;-80
2021/08/14 08:12:43;;;;;;;3.03;1.73;;;25.80;99.90;;;;;;5035930;28;20223;-80
2021/08/14 08:15:12;;;;;;;1.95;1.40;;;25.90;99.90;;;;;;5035930;28;20671;-80
2021/08/14 08:17:39;;;;;;;2.83;2.13;;;26.10;99.90;;;;;;5036315;28;20223;-80
2021/08/14 08:20:10;;;;;;;2.55;1.75;;;26.20;99.90;;;;;;5036123;28;20203;-80
2021/08/14 08:22:37;;;;;;;2.13;1.52;;;26.30;99.90;;;;;;5035659;28;20227;-80
2021/08/14 08:25:04;;;;;;;1.52;1.42;;;26.40;99.90;;;;;;5035906;28;20214;-80
2021/08/14 08:27:31;;;;;;;3.30;1.58;;;26.50;99.90;;;;;;5035982;28;20207;-80
2021/08/14 08:29:57;;;;;;;2.22;1.77;;;26.50;99.90;;;;;;5035632;28;20203;-80
2021/08/14 08:32:24;;;;;;;3.08;1.90;;;26.60;99.90;;;;;;5035633;28;20219;-80
2021/08/14 08:34:51;;;;;;;3.33;1.75;;;26.60;99.90;;;;;;5035833;28;20218;-80
2021/08/14 08:37:19;;;;;;;3.08;1.00;;;26.70;99.90;;;;;;5035403;28;20223;-80
2021/08/14 08:39:46;;;;;;;2.80;1.83;;;26.70;99.90;;;;;;5035382;28;20342;-80
2021/08/14 08:42:13;;;;;;;1.88;1.52;;;26.70;99.90;;;;;;5035648;28;20227;-80
2021/08/14 08:44:39;;;;;;;2.17;1.40;;;26.70;99.90;;;;;;5035715;28;20207;-81
2021/08/14 08:47:08;;;;;;;1.17;1.05;;;26.70;99.90;;;;;;5035603;28;20249;-81
2021/08/14 08:49:39;;;;;;;1.27;1.17;;;26.70;99.90;;;;;;5035577;28;20208;-80
2021/08/14 08:52:07;;;;;;;2.13;1.80;;;26.90;99.90;;;;;;5035486;28;20234;-80
2021/08/14 08:54:35;;;;;;;2.20;1.45;;;26.90;99.90;;;;;;5036240;28;20211;-80
2021/08/14 08:57:02;;;;;;;2.05;1.67;;;27.00;99.90;;;;;;5035104;28;20565;-80
2021/08/14 08:59:28;;;;;;;2.72;1.35;;;27.10;99.90;;;;;;5035543;28;20294;-80
2021/08/14 09:01:55;;;;;;;2.40;1.92;;;27.20;99.90;;;;;;5035116;28;20247;-80
2021/08/14 09:04:24;;;;;;;1.98;1.88;;;27.40;99.90;;;;;;5035358;28;20203;-80
2021/08/14 09:06:51;;;;;;;2.15;1.38;;;27.50;99.90;;;;;;5034960;28;20571;-81
2021/08/14 09:09:17;;;;;;;1.75;1.65;;;27.60;99.90;;;;;;5035289;28;20195;-80
2021/08/14 09:11:50;;;;;;;1.80;1.50;;;27.70;99.90;;;;;;5035099;28;20226;-80
2021/08/14 09:14:17;;;;;;;2.67;1.60;;;27.90;99.90;;;;;;5034911;28;20184;-82
2021/08/14 09:16:44;;;;;;;2.67;1.90;;;28.00;99.90;;;;;;5035081;28;20191;-81
2021/08/14 09:19:22;;;;;;;1.65;1.42;;;28.10;99.90;;;;;;5035045;28;20205;-80
2021/08/14 09:21:48;;;;;;;2.78;1.75;;;28.10;99.90;;;;;;5034592;28;20251;-81
2021/08/14 09:24:31;;;;;;;2.85;1.55;;;28.10;99.90;;;;;;5034677;28;20670;-80
2021/08/14 09:27:03;;;;;;;1.73;1.60;;;28.20;99.90;;;;;;5034949;28;20215;-79
2021/08/14 09:29:32;;;;;;;2.85;1.85;;;28.20;99.90;;;;;;5034829;28;20235;-80
2021/08/14 09:32:00;;;;;;;1.95;1.63;;;28.30;99.90;;;;;;5034728;28;20329;-80
2021/08/14 09:34:29;;;;;;;1.88;1.67;;;28.30;99.90;;;;;;5034795;28;20200;-79
2021/08/14 09:37:03;;;;;;;4.63;2.20;;;28.40;99.90;;;;;;5034708;28;20193;-79
2021/08/14 09:39:31;;;;;;;2.63;1.98;;;28.60;99.90;;;;;;5034191;28;20236;-79
2021/08/14 09:42:08;;;;;;;2.60;1.65;;;28.60;99.90;;;;;;5034514;28;20235;-79
2021/08/14 09:44:36;;;;;;;3.17;2.05;;;28.50;99.90;;;;;;5034590;28;20650;-79
2021/08/14 09:47:08;;;;;;;2.35;1.80;;;28.50;99.90;;;;;;5034445;28;20194;-79
2021/08/14 09:49:51;;;;;;;2.28;1.63;;;28.40;99.90;;;;;;5034473;28;20201;-79
2021/08/14 09:52:22;;;;;;;2.55;1.77;;;28.50;99.90;;;;;;5034086;28;20231;-79
2021/08/14 09:54:49;;;;;;;3.22;1.95;;;28.70;99.90;;;;;;5034594;28;20202;-79
2021/08/14 09:57:19;;;;;;;1.95;1.45;;;28.80;99.90;;;;;;5034086;28;20692;-79
2021/08/14 09:59:47;;;;;;;3.40;1.80;;;28.70;99.90;;;;;;5034293;28;20193;-79
2021/08/14 10:02:17;;;;;;;3.60;1.50;;;28.70;99.90;;;;;;5033928;28;20225;-79
2021/08/14 10:04:45;;;;;;;2.00;1.50;;;28.80;99.90;;;;;;5034179;28;20266;-79
2021/08/14 10:07:14;;;;;;;3.10;2.50;;;28.90;99.90;;;;;;5034150;28;20258;-79
2021/08/14 10:09:41;;;;;;;2.13;1.92;;;29.00;99.90;;;;;;5034068;28;20188;-79
2021/08/14 10:12:08;;;;;;;1.50;1.40;;;29.10;99.90;;;;;;5033078;28;20249;-79
2021/08/14 10:14:38;;;;;;;1.90;1.80;;;29.20;99.90;;;;;;5034000;28;20191;-79
2021/08/14 10:17:06;;;;;;;1.90;1.70;;;29.30;99.90;;;;;;5033997;28;20196;-79
2021/08/14 10:19:33;;;;;;;1.60;1.50;;;29.30;99.90;;;;;;5033544;28;20241;-79
2021/08/14 10:22:00;;;;;;;4.60;1.92;;;29.50;99.90;;;;;;5033924;28;20235;-79
2021/08/14 10:24:34;;;;;;;2.60;2.00;;;29.60;99.90;;;;;;5033572;28;20674;-79
2021/08/14 10:27:04;;;;;;;1.30;1.20;;;29.70;99.90;;;;;;5033818;28;20195;-79
2021/08/14 10:29:46;;;;;;;1.77;1.67;;;29.80;99.90;;;;;;5034023;28;20190;-79
2021/08/14 10:32:46;;;;;;;1.98;1.83;;;29.70;99.90;;;;;;5033673;28;20231;-79
2021/08/14 10:35:38;;;;;;;1.40;1.30;;;29.80;99.90;;;;;;5033372;28;20710;-79
2021/08/14 10:38:05;;;;;;;2.22;1.98;;;29.80;99.90;;;;;;5033649;28;20240;-79
2021/08/14 10:40:58;;;;;;;2.55;1.67;;;30.00;99.90;;;;;;5033592;28;20194;-79
2021/08/14 10:43:57;;;;;;;1.63;1.50;;;30.20;99.90;;;;;;5033640;28;20230;-79
2021/08/14 10:46:40;;;;;;;2.35;1.80;;;30.40;99.90;;;;;;5033158;28;20575;-79
2021/08/14 10:49:08;;;;;;;3.22;1.98;;;30.60;99.90;;;;;;5033517;28;20197;-79
2021/08/14 10:52:15;;;;;;;2.33;2.13;;;30.80;99.90;;;;;;5033365;28;20228;-79
2021/08/14 10:55:10;;;;;;;2.47;1.60;;;31.20;98.70;;;;;;5033481;28;20215;-79
2021/08/14 10:57:43;;;;;;;2.47;1.75;;;31.80;96.80;;;;;;5033080;28;20196;-79
2021/08/14 11:00:23;;;;;;;2.47;1.65;;;32.30;94.80;;;;;;5033396;28;20193;-79
2021/08/14 11:03:06;;;;;;;3.80;2.05;;;33.00;93.20;;;;;;5033231;28;20283;-79
2021/08/14 11:05:33;;;;;;;2.30;1.75;;;33.20;91.80;;;;;;5033066;28;20630;-79
2021/08/14 11:08:01;;;;;;;2.97;1.88;;;33.00;91.90;;;;;;5033244;28;20218;-79
2021/08/14 11:10:34;;;;;;;2.20;1.70;;;33.00;91.00;;;;;;5032923;28;20749;-79
2021/08/14 11:13:01;;;;;;;2.05;1.80;;;32.50;90.20;;;;;;5032998;28;20598;-79
2021/08/14 11:15:37;;;;;;;2.45;1.88;;;32.20;90.80;;;;;;5033228;28;20217;-78
2021/08/14 11:18:07;;;;;;;1.73;1.45;;;31.60;90.70;;;;;;5032829;28;20224;-79
2021/08/14 11:20:36;;;;;;;1.55;1.45;;;31.10;91.90;;;;;;5033151;28;20211;-79
2021/08/14 11:23:09;;;;;;;1.98;1.80;;;30.70;92.50;;;;;;5033359;28;20604;-79
2021/08/14 11:25:39;;;;;;;2.17;1.80;;;30.50;92.80;;;;;;5036892;28;20543;-79
2021/08/14 11:28:07;;;;;;;2.83;1.67;;;30.50;92.10;;;;;;5037111;28;20205;-79
2021/08/14 11:30:37;;;;;;;2.58;1.60;;;30.20;92.40;;;;;;5036738;28;20683;-79
2021/08/14 11:33:07;;;;;;;2.70;2.10;;;30.20;93.00;;;;;;5036956;28;20238;-79
2021/08/14 11:35:37;;;;;;;1.95;1.65;;;30.20;93.60;;;;;;5037075;28;20200;-79
2021/08/14 11:38:05;;;;;;;3.38;2.20;;;30.30;93.50;;;;;;5036624;28;20207;-79
2021/08/14 11:40:35;;;;;;;4.00;1.83;;;30.30;93.80;;;;;;5036908;28;20199;-78
2021/08/14 11:43:03;;;;;;;1.73;1.63;;;30.30;93.20;;;;;;5036796;28;20579;-80
2021/08/14 11:45:33;;;;;;;1.70;1.58;;;30.30;93.30;;;;;;5036470;28;20200;-79
2021/08/14 11:48:01;;;;;;;2.45;2.00;;;30.40;92.90;;;;;;5036484;28;20235;-79
2021/08/14 11:50:34;;;;;;;1.85;1.60;;;30.40;92.50;;;;;;5036709;28;20199;-79
2021/08/14 11:53:01;;;;;;;3.03;1.90;;;30.30;92.90;;;;;;5036662;28;20233;-79
2021/08/14 11:55:28;;;;;;;3.25;2.08;;;30.10;92.60;;;;;;5036343;28;20589;-79
2021/08/14 11:57:54;;;;;;;2.33;1.90;;;30.00;92.90;;;;;;5037280;28;20552;-79
2021/08/14 12:00:27;;;;;;;3.45;1.60;;;30.00;92.70;;;;;;5036187;28;20222;-78
2021/08/14 12:03:07;;;;;;;1.60;1.50;;;30.20;92.50;;;;;;5036476;28;20242;-77
2021/08/14 12:05:36;;;;;;;2.78;1.58;;;30.20;93.20;;;;;;5036448;28;20203;-79
2021/08/14 12:08:04;;;;;;;2.20;1.40;;;30.10;93.90;;;;;;5036396;28;20195;-79
2021/08/14 12:10:31;;;;;;;2.22;1.95;;;29.90;94.60;;;;;;5036042;28;20650;-78
2021/08/14 12:12:59;;;;;;;1.70;1.60;;;29.80;94.60;;;;;;5036317;28;20718;-79
2021/08/14 12:15:36;;;;;;;2.00;1.83;;;29.90;93.80;;;;;;5036415;28;20549;-79
2021/08/14 12:18:03;;;;;;;2.45;2.08;;;29.90;94.90;;;;;;5036779;28;20214;-78
2021/08/14 12:20:31;;;;;;;2.13;1.83;;;30.00;94.20;;;;;;5036386;28;20225;-79
2021/08/14 12:23:21;;;;;;;3.20;2.30;;;30.00;94.70;;;;;;5035759;28;20733;-79
2021/08/14 12:25:52;;;;;;;2.60;1.80;;;29.90;94.20;;;;;;5036653;28;20194;-78
2021/08/14 12:28:19;;;;;;;2.53;1.90;;;29.70;96.10;;;;;;5036060;28;20204;-78
2021/08/14 12:30:46;;;;;;;2.00;1.50;;;29.50;95.20;;;;;;5035909;28;20533;-79
2021/08/14 12:33:24;;;;;;;2.40;2.17;;;29.30;95.90;;;;;;5035869;28;20232;-79
2021/08/14 12:35:58;;;;;;;2.40;1.92;;;29.10;97.60;;;;;;5035537;28;20231;-79
2021/08/14 12:38:27;;;;;;;2.42;1.80;;;29.00;97.70;;;;;;5035344;28;20235;-79
2021/08/14 12:40:54;;;;;;;2.00;1.85;;;28.90;98.40;;;;;;5035818;28;20279;-79
2021/08/14 12:43:23;;;;;;;3.20;2.38;;;28.80;96.90;;;;;;5035706;28;20249;-79
2021/08/14 12:45:50;;;;;;;8.27;1.98;;;28.70;97.00;;;;;;5035964;28;20199;-79
2021/08/14 12:48:18;;;;;;;1.83;1.73;;;28.60;97.60;;;;;;5035724;28;20200;-79
2021/08/14 12:50:45;;;;;;;5.72;1.90;;;28.60;97.80;;;;;;5035683;28;20232;-79
2021/08/14 12:53:16;;;;;;;3.05;2.20;;;28.50;97.10;;;;;;5035249;28;20221;-78
2021/08/14 12:55:45;;;;;;;2.15;1.70;;;28.40;96.70;;;;;;5035307;28;20679;-79